sensor_id;sensor_type;location;lat;lon;timestamp;pressure;altitude;pressure_sealevel;temperature;humidity
51299;BME280;37382;45.192;9.790;2023-06-19T03:56:11;101223.28;;;22.01;100.00
51299;BME280;37382;45.192;9.790;2023-06-19T03:58:39;101231.03;;;21.99;100.00
51299;BME280;37382;45.192;9.790;2023-06-19T04:01:07;101233.16;;;21.92;100.00
51299;BME280;37382;45.192;9.790;2023-06-19T04:03:35;101228.72;;;21.91;100.00
51299;BME280;37382;45.192;9.790;2023-06-19T04:06:03;101231.38;;;21.80;100.00
51299;BME280;37382;45.192;9.790;2023-06-19T04:08:30;101223.94;;;21.81;100.00
51299;BME280;37382;45.192;9.790;2023-06-19T04:10:57;101228.72;;;21.91;100.00
51299;BME280;37382;45.192;9.790;2023-06-19T04:13:28;101222.50;;;22.06;100.00
51299;BME280;37382;45.192;9.790;2023-06-19T04:15:55;101218.91;;;22.05;100.00
51299;BME280;37382;45.192;9.790;2023-06-19T04:18:23;101218.75;;;21.90;100.00
51299;BME280;37382;45.192;9.790;2023-06-19T04:20:51;101226.59;;;21.98;100.00
51299;BME280;37382;45.192;9.790;2023-06-19T04:23:18;101225.06;;;22.45;100.00
51299;BME280;37382;45.192;9.790;2023-06-19T04:25:46;101221.16;;;21.81;100.00
51299;BME280;37382;45.192;9.790;2023-06-19T04:28:14;101221.94;;;21.76;100.00
51299;BME280;37382;45.192;9.790;2023-06-19T04:30:41;101218.78;;;21.95;100.00
51299;BME280;37382;45.192;9.790;2023-06-19T04:33:10;101221.84;;;21.93;100.00
51299;BME280;37382;45.192;9.790;2023-06-19T04:35:37;101215.75;;;21.96;100.00
51299;BME280;37382;45.192;9.790;2023-06-19T04:38:07;101210.25;;;22.01;100.00
51299;BME280;37382;45.192;9.790;2023-06-19T04:40:36;101209.66;;;21.94;100.00
51299;BME280;37382;45.192;9.790;2023-06-19T04:43:03;101206.69;;;21.74;100.00
51299;BME280;37382;45.192;9.790;2023-06-19T04:45:33;101210.09;;;22.13;100.00
51299;BME280;37382;45.192;9.790;2023-06-19T04:48:00;101213.16;;;22.17;100.00
51299;BME280;37382;45.192;9.790;2023-06-19T04:50:31;101213.63;;;22.03;100.00
51299;BME280;37382;45.192;9.790;2023-06-19T04:52:58;101216.31;;;21.98;100.00
51299;BME280;37382;45.192;9.790;2023-06-19T04:55:26;101214.19;;;21.78;100.00
51299;BME280;37382;45.192;9.790;2023-06-19T04:57:54;101216.59;;;21.97;100.00
51299;BME280;37382;45.192;9.790;2023-06-19T05:00:22;101222.25;;;22.12;100.00
51299;BME280;37382;45.192;9.790;2023-06-19T05:02:51;101221.19;;;22.13;100.00
51299;BME280;37382;45.192;9.790;2023-06-19T05:05:19;101225.41;;;22.21;100.00
51299;BME280;37382;45.192;9.790;2023-06-19T05:07:50;101226.56;;;22.25;100.00
51299;BME280;37382;45.192;9.790;2023-06-19T05:10:18;101221.31;;;22.61;100.00
51299;BME280;37382;45.192;9.790;2023-06-19T05:12:46;101213.00;;;22.61;100.00
51299;BME280;37382;45.192;9.790;2023-06-19T05:15:14;101207.94;;;22.53;100.00
51299;BME280;37382;45.192;9.790;2023-06-19T05:17:41;101206.31;;;22.62;100.00
51299;BME280;37382;45.192;9.790;2023-06-19T05:20:09;101198.63;;;22.69;100.00
51299;BME280;37382;45.192;9.790;2023-06-19T05:22:38;101199.66;;;22.58;100.00
51299;BME280;37382;45.192;9.790;2023-06-19T05:25:07;101196.19;;;22.78;100.00
51299;BME280;37382;45.192;9.790;2023-06-19T05:27:34;101198.41;;;22.81;100.00
51299;BME280;37382;45.192;9.790;2023-06-19T05:30:03;101193.66;;;22.77;100.00
51299;BME280;37382;45.192;9.790;2023-06-19T05:32:32;101191.75;;;22.82;100.00
51299;BME280;37382;45.192;9.790;2023-06-19T05:35:00;101187.00;;;22.78;100.00
51299;BME280;37382;45.192;9.790;2023-06-19T05:37:28;101182.59;;;22.87;100.00
51299;BME280;37382;45.192;9.790;2023-06-19T05:39:55;101186.25;;;22.87;100.00
51299;BME280;37382;45.192;9.790;2023-06-19T05:42:24;101194.03;;;22.96;100.00
51299;BME280;37382;45.192;9.790;2023-06-19T05:44:51;101190.66;;;22.83;100.00
51299;BME280;37382;45.192;9.790;2023-06-19T05:47:19;101188.03;;;22.61;100.00
51299;BME280;37382;45.192;9.790;2023-06-19T05:49:47;101200.84;;;22.72;100.00
51299;BME280;37382;45.192;9.790;2023-06-19T05:52:15;101202.88;;;22.87;100.00
51299;BME280;37382;45.192;9.790;2023-06-19T05:54:43;101203.41;;;22.84;100.00
51299;BME280;37382;45.192;9.790;2023-06-19T05:57:11;101215.06;;;22.81;100.00
51299;BME280;37382;45.192;9.790;2023-06-19T05:59:39;101223.22;;;22.61;100.00
51299;BME280;37382;45.192;9.790;2023-06-19T06:02:06;101216.06;;;22.65;100.00
51299;BME280;37382;45.192;9.790;2023-06-19T06:04:34;101219.09;;;22.63;100.00
51299;BME280;37382;45.192;9.790;2023-06-19T06:07:03;101215.53;;;22.68;100.00
51299;BME280;37382;45.192;9.790;2023-06-19T06:09:31;101219.28;;;22.94;100.00
51299;BME280;37382;45.192;9.790;2023-06-19T06:12:03;101215.78;;;23.14;100.00
51299;BME280;37382;45.192;9.790;2023-06-19T06:14:31;101218.72;;;22.97;100.00
51299;BME280;37382;45.192;9.790;2023-06-19T06:16:58;101219.81;;;22.91;100.00
51299;BME280;37382;45.192;9.790;2023-06-19T06:19:26;101229.59;;;22.56;100.00
51299;BME280;37382;45.192;9.790;2023-06-19T06:21:53;101237.81;;;22.46;100.00
51299;BME280;37382;45.192;9.790;2023-06-19T06:24:21;101244.69;;;22.38;100.00
51299;BME280;37382;45.192;9.790;2023-06-19T06:26:48;101238.97;;;22.50;100.00
51299;BME280;37382;45.192;9.790;2023-06-19T06:29:16;101247.53;;;22.43;100.00
51299;BME280;37382;45.192;9.790;2023-06-19T06:31:45;101251.66;;;22.41;100.00
51299;BME280;37382;45.192;9.790;2023-06-19T06:34:14;101251.19;;;22.54;100.00
51299;BME280;37382;45.192;9.790;2023-06-19T06:36:41;101245.06;;;22.52;100.00
51299;BME280;37382;45.192;9.790;2023-06-19T06:39:28;101247.31;;;22.55;100.00
51299;BME280;37382;45.192;9.790;2023-06-19T06:41:55;101251.06;;;22.76;100.00
51299;BME280;37382;45.192;9.790;2023-06-19T06:44:23;101255.25;;;22.79;100.00
51299;BME280;37382;45.192;9.790;2023-06-19T06:46:50;101246.91;;;23.21;100.00
51299;BME280;37382;45.192;9.790;2023-06-19T06:49:21;101252.69;;;23.09;100.00
51299;BME280;37382;45.192;9.790;2023-06-19T06:51:50;101251.66;;;23.31;100.00
51299;BME280;37382;45.192;9.790;2023-06-19T06:54:17;101247.19;;;24.04;100.00
51299;BME280;37382;45.192;9.790;2023-06-19T06:56:44;101251.38;;;24.17;100.00
51299;BME280;37382;45.192;9.790;2023-06-19T06:59:15;101244.38;;;24.91;100.00
51299;BME280;37382;45.192;9.790;2023-06-19T07:01:42;101244.56;;;25.20;100.00
51299;BME280;37382;45.192;9.790;2023-06-19T07:04:10;101245.41;;;25.11;100.00
51299;BME280;37382;45.192;9.790;2023-06-19T07:06:38;101240.81;;;24.65;100.00
51299;BME280;37382;45.192;9.790;2023-06-19T07:09:05;101245.47;;;25.00;100.00
51299;BME280;37382;45.192;9.790;2023-06-19T07:11:33;101252.22;;;24.58;100.00
51299;BME280;37382;45.192;9.790;2023-06-19T07:14:01;101251.66;;;24.61;100.00
51299;BME280;37382;45.192;9.790;2023-06-19T07:16:29;101269.16;;;24.46;100.00
51299;BME280;37382;45.192;9.790;2023-06-19T07:18:57;101264.44;;;24.21;100.00
51299;BME280;37382;45.192;9.790;2023-06-19T07:21:27;101254.97;;;24.02;100.00
51299;BME280;37382;45.192;9.790;2023-06-19T07:23:56;101266.38;;;24.10;100.00
51299;BME280;37382;45.192;9.790;2023-06-19T07:26:24;101264.91;;;23.82;100.00
51299;BME280;37382;45.192;9.790;2023-06-19T07:28:52;101274.06;;;23.83;100.00
51299;BME280;37382;45.192;9.790;2023-06-19T07:31:20;101270.50;;;24.03;100.00
51299;BME280;37382;45.192;9.790;2023-06-19T07:33:47;101264.38;;;23.85;100.00
51299;BME280;37382;45.192;9.790;2023-06-19T07:36:14;101263.31;;;24.02;100.00
51299;BME280;37382;45.192;9.790;2023-06-19T07:38:43;101255.25;;;24.21;100.00
51299;BME280;37382;45.192;9.790;2023-06-19T07:41:11;101253.31;;;24.73;100.00
51299;BME280;37382;45.192;9.790;2023-06-19T07:43:39;101253.31;;;24.78;100.00
51299;BME280;37382;45.192;9.790;2023-06-19T07:46:06;101253.88;;;24.69;100.00
51299;BME280;37382;45.192;9.790;2023-06-19T07:48:34;101252.47;;;24.82;100.00
51299;BME280;37382;45.192;9.790;2023-06-19T07:51:02;101258.03;;;24.82;100.00
51299;BME280;37382;45.192;9.790;2023-06-19T07:53:29;101256.38;;;24.76;100.00
51299;BME280;37382;45.192;9.790;2023-06-19T07:55:57;101264.41;;;24.83;100.00
51299;BME280;37382;45.192;9.790;2023-06-19T07:58:24;101256.09;;;24.78;100.00
51299;BME280;37382;45.192;9.790;2023-06-19T08:00:52;101257.44;;;24.96;100.00
51299;BME280;37382;45.192;9.790;2023-06-19T08:03:19;101264.38;;;25.03;100.00
51299;BME280;37382;45.192;9.790;2023-06-19T08:05:49;101252.44;;;24.93;100.00
51299;BME280;37382;45.192;9.790;2023-06-19T08:08:16;101258.88;;;24.67;100.00
51299;BME280;37382;45.192;9.790;2023-06-19T08:10:44;101259.16;;;24.86;100.00
51299;BME280;37382;45.192;9.790;2023-06-19T08:13:11;101262.44;;;24.94;100.00
51299;BME280;37382;45.192;9.790;2023-06-19T08:15:38;101259.53;;;25.45;100.00
51299;BME280;37382;45.192;9.790;2023-06-19T08:18:06;101260.66;;;25.29;100.00
51299;BME280;37382;45.192;9.790;2023-06-19T08:20:34;101257.78;;;25.60;100.00
51299;BME280;37382;45.192;9.790;2023-06-19T08:23:02;101249.97;;;25.56;100.00
51299;BME280;37382;45.192;9.790;2023-06-19T08:25:33;101247.47;;;25.55;100.00
51299;BME280;37382;45.192;9.790;2023-06-19T08:28:00;101249.88;;;25.77;100.00
51299;BME280;37382;45.192;9.790;2023-06-19T08:30:28;101242.97;;;25.69;100.00
51299;BME280;37382;45.192;9.790;2023-06-19T08:32:56;101250.25;;;25.60;100.00
51299;BME280;37382;45.192;9.790;2023-06-19T08:35:23;101240.56;;;25.52;100.00
51299;BME280;37382;45.192;9.790;2023-06-19T08:37:51;101242.16;;;25.64;100.00
51299;BME280;37382;45.192;9.790;2023-06-19T08:40:19;101239.31;;;25.74;100.00
51299;BME280;37382;45.192;9.790;2023-06-19T08:42:47;101242.38;;;25.72;100.00
51299;BME280;37382;45.192;9.790;2023-06-19T08:45:14;101240.31;;;25.88;100.00
51299;BME280;37382;45.192;9.790;2023-06-19T08:47:44;101235.31;;;25.85;100.00
51299;BME280;37382;45.192;9.790;2023-06-19T08:50:11;101230.75;;;26.10;100.00
51299;BME280;37382;45.192;9.790;2023-06-19T08:52:39;101232.31;;;26.51;100.00
51299;BME280;37382;45.192;9.790;2023-06-19T08:55:09;101227.38;;;26.77;100.00
51299;BME280;37382;45.192;9.790;2023-06-19T08:57:39;101235.38;;;26.84;100.00
51299;BME280;37382;45.192;9.790;2023-06-19T09:00:08;101242.31;;;26.27;100.00
51299;BME280;37382;45.192;9.790;2023-06-19T09:02:41;101238.47;;;26.53;100.00
51299;BME280;37382;45.192;9.790;2023-06-19T09:05:14;101237.97;;;26.45;100.00
51299;BME280;37382;45.192;9.790;2023-06-19T09:07:53;101234.66;;;26.38;100.00
51299;BME280;37382;45.192;9.790;2023-06-19T09:10:21;101229.38;;;26.37;100.00
51299;BME280;37382;45.192;9.790;2023-06-19T09:13:02;101225.53;;;26.62;100.00
51299;BME280;37382;45.192;9.790;2023-06-19T09:15:35;101220.72;;;26.73;100.00
51299;BME280;37382;45.192;9.790;2023-06-19T09:18:05;101220.47;;;27.17;100.00
51299;BME280;37382;45.192;9.790;2023-06-19T09:20:41;101219.41;;;26.89;99.01
51299;BME280;37382;45.192;9.790;2023-06-19T09:23:13;101217.25;;;26.81;100.00
51299;BME280;37382;45.192;9.790;2023-06-19T09:25:48;101224.31;;;27.46;100.00
51299;BME280;37382;45.192;9.790;2023-06-19T09:28:24;101219.56;;;27.46;98.87
51299;BME280;37382;45.192;9.790;2023-06-19T09:31:01;101222.34;;;27.46;94.75
51299;BME280;37382;45.192;9.790;2023-06-19T09:33:31;101226.22;;;27.26;95.24
51299;BME280;37382;45.192;9.790;2023-06-19T09:36:01;101231.50;;;27.52;94.54
51299;BME280;37382;45.192;9.790;2023-06-19T09:38:30;101237.00;;;27.95;90.42
51299;BME280;37382;45.192;9.790;2023-06-19T09:41:03;101236.97;;;27.62;89.86
51299;BME280;37382;45.192;9.790;2023-06-19T09:43:39;101230.69;;;27.90;88.32
51299;BME280;37382;45.192;9.790;2023-06-19T09:46:09;101233.97;;;27.34;92.86
51299;BME280;37382;45.192;9.790;2023-06-19T09:48:42;101233.72;;;27.31;92.92
51299;BME280;37382;45.192;9.790;2023-06-19T09:51:20;101236.50;;;27.74;90.78
51299;BME280;37382;45.192;9.790;2023-06-19T09:53:53;101247.88;;;27.59;89.94
51299;BME280;37382;45.192;9.790;2023-06-19T09:56:21;101232.88;;;27.93;87.03
51299;BME280;37382;45.192;9.790;2023-06-19T09:58:51;101233.03;;;27.82;88.42
51299;BME280;37382;45.192;9.790;2023-06-19T10:01:21;101232.94;;;27.87;82.95
51299;BME280;37382;45.192;9.790;2023-06-19T10:04:02;101242.06;;;27.74;87.10
51299;BME280;37382;45.192;9.790;2023-06-19T10:06:30;101230.09;;;27.55;85.40
51299;BME280;37382;45.192;9.790;2023-06-19T10:09:06;101232.94;;;27.87;85.82
51299;BME280;37382;45.192;9.790;2023-06-19T10:11:51;101227.75;;;27.81;81.94
51299;BME280;37382;45.192;9.790;2023-06-19T10:14:20;101224.44;;;27.98;80.60
51299;BME280;37382;45.192;9.790;2023-06-19T10:16:48;101217.69;;;28.32;81.19
51299;BME280;37382;45.192;9.790;2023-06-19T10:19:20;101219.84;;;28.21;79.32
51299;BME280;37382;45.192;9.790;2023-06-19T10:21:50;101220.50;;;28.32;80.20
51299;BME280;37382;45.192;9.790;2023-06-19T10:24:20;101223.50;;;28.02;81.46
51299;BME280;37382;45.192;9.790;2023-06-19T10:27:02;101222.59;;;27.88;80.95
51299;BME280;37382;45.192;9.790;2023-06-19T10:29:39;101225.22;;;28.17;80.65
51299;BME280;37382;45.192;9.790;2023-06-19T10:32:17;101215.84;;;28.41;79.07
51299;BME280;37382;45.192;9.790;2023-06-19T10:34:46;101212.25;;;28.54;78.58
51299;BME280;37382;45.192;9.790;2023-06-19T10:37:17;101206.09;;;28.85;78.80
51299;BME280;37382;45.192;9.790;2023-06-19T10:39:44;101212.13;;;28.79;78.54
51299;BME280;37382;45.192;9.790;2023-06-19T10:42:12;101209.63;;;29.33;74.41
51299;BME280;37382;45.192;9.790;2023-06-19T10:44:39;101209.13;;;29.03;72.04
51299;BME280;37382;45.192;9.790;2023-06-19T10:47:09;101205.38;;;28.66;73.09
51299;BME280;37382;45.192;9.790;2023-06-19T10:49:37;101205.78;;;29.42;71.42
51299;BME280;37382;45.192;9.790;2023-06-19T10:52:05;101194.50;;;29.34;73.49
51299;BME280;37382;45.192;9.790;2023-06-19T10:54:33;101190.66;;;29.43;75.38
51299;BME280;37382;45.192;9.790;2023-06-19T10:57:04;101193.47;;;29.66;72.70
51299;BME280;37382;45.192;9.790;2023-06-19T10:59:33;101184.59;;;30.32;71.92
51299;BME280;37382;45.192;9.790;2023-06-19T11:02:02;101189.13;;;29.96;74.42
51299;BME280;37382;45.192;9.790;2023-06-19T11:04:30;101185.69;;;29.63;75.17
51299;BME280;37382;45.192;9.790;2023-06-19T11:07:04;101174.44;;;30.22;73.32
51299;BME280;37382;45.192;9.790;2023-06-19T11:09:32;101174.00;;;30.51;74.75
51299;BME280;37382;45.192;9.790;2023-06-19T11:12:00;101171.41;;;30.73;75.49
51299;BME280;37382;45.192;9.790;2023-06-19T11:14:29;101159.19;;;30.77;74.34
51299;BME280;37382;45.192;9.790;2023-06-19T11:16:57;101163.50;;;30.75;74.06
51299;BME280;37382;45.192;9.790;2023-06-19T11:19:30;101155.84;;;30.66;74.49
51299;BME280;37382;45.192;9.790;2023-06-19T11:21:57;101153.63;;;30.86;76.28
51299;BME280;37382;45.192;9.790;2023-06-19T11:24:24;101145.31;;;31.30;73.89
51299;BME280;37382;45.192;9.790;2023-06-19T11:26:52;101158.28;;;31.66;76.72
51299;BME280;37382;45.192;9.790;2023-06-19T11:29:24;101145.81;;;31.32;76.06
51299;BME280;37382;45.192;9.790;2023-06-19T11:32:13;101149.78;;;31.48;76.21
51299;BME280;37382;45.192;9.790;2023-06-19T11:34:41;101155.75;;;30.40;75.98
51299;BME280;37382;45.192;9.790;2023-06-19T11:37:17;101138.41;;;30.78;77.01
51299;BME280;37382;45.192;9.790;2023-06-19T11:39:46;101147.28;;;31.20;75.20
51299;BME280;37382;45.192;9.790;2023-06-19T11:42:14;101147.66;;;31.71;77.40
51299;BME280;37382;45.192;9.790;2023-06-19T11:47:22;101126.44;;;32.56;76.97
51299;BME280;37382;45.192;9.790;2023-06-19T11:49:51;101131.31;;;32.38;73.45
51299;BME280;37382;45.192;9.790;2023-06-19T11:52:18;101124.66;;;32.43;73.87
51299;BME280;37382;45.192;9.790;2023-06-19T11:54:46;101132.22;;;32.69;73.22
51299;BME280;37382;45.192;9.790;2023-06-19T11:57:14;101131.19;;;32.64;72.80
51299;BME280;37382;45.192;9.790;2023-06-19T11:59:42;101138.50;;;32.18;72.20
51299;BME280;37382;45.192;9.790;2023-06-19T12:02:09;101141.81;;;30.66;75.89
51299;BME280;37382;45.192;9.790;2023-06-19T12:04:37;101139.38;;;31.84;73.33
51299;BME280;37382;45.192;9.790;2023-06-19T12:07:06;101129.84;;;32.32;71.86
51299;BME280;37382;45.192;9.790;2023-06-19T12:09:33;101125.56;;;32.64;70.79
51299;BME280;37382;45.192;9.790;2023-06-19T12:12:02;101129.25;;;31.04;74.20
51299;BME280;37382;45.192;9.790;2023-06-19T12:14:29;101128.97;;;31.75;73.46
51299;BME280;37382;45.192;9.790;2023-06-19T12:16:57;101121.28;;;32.58;74.57
51299;BME280;37382;45.192;9.790;2023-06-19T12:19:26;101126.81;;;33.57;69.63
51299;BME280;37382;45.192;9.790;2023-06-19T12:21:54;101125.25;;;32.96;67.92
51299;BME280;37382;45.192;9.790;2023-06-19T12:24:22;101118.50;;;33.39;70.29
51299;BME280;37382;45.192;9.790;2023-06-19T12:26:49;101123.88;;;33.53;71.18
51299;BME280;37382;45.192;9.790;2023-06-19T12:29:17;101106.34;;;34.14;70.33
51299;BME280;37382;45.192;9.790;2023-06-19T12:31:48;101115.94;;;34.34;70.82
51299;BME280;37382;45.192;9.790;2023-06-19T12:34:16;101110.38;;;33.16;68.61
51299;BME280;37382;45.192;9.790;2023-06-19T12:36:57;101091.00;;;33.36;67.84
51299;BME280;37382;45.192;9.790;2023-06-19T12:39:25;101101.84;;;33.67;68.13
51299;BME280;37382;45.192;9.790;2023-06-19T12:41:53;101099.19;;;32.78;72.53
51299;BME280;37382;45.192;9.790;2023-06-19T12:44:21;101101.34;;;33.32;68.23
51299;BME280;37382;45.192;9.790;2023-06-19T12:46:50;101104.38;;;32.58;68.63
51299;BME280;37382;45.192;9.790;2023-06-19T12:49:17;101103.00;;;33.66;66.04
51299;BME280;37382;45.192;9.790;2023-06-19T12:51:45;101090.19;;;33.69;66.50
51299;BME280;37382;45.192;9.790;2023-06-19T12:54:13;101088.16;;;34.36;63.16
51299;BME280;37382;45.192;9.790;2023-06-19T12:56:41;101095.06;;;34.14;64.91
51299;BME280;37382;45.192;9.790;2023-06-19T12:59:09;101083.56;;;33.53;66.49
51299;BME280;37382;45.192;9.790;2023-06-19T13:01:37;101086.19;;;33.91;64.02
51299;BME280;37382;45.192;9.790;2023-06-19T13:04:05;101087.22;;;34.32;64.30
51299;BME280;37382;45.192;9.790;2023-06-19T13:06:33;101080.56;;;34.03;65.56
51299;BME280;37382;45.192;9.790;2023-06-19T13:09:01;101075.22;;;34.48;62.36
51299;BME280;37382;45.192;9.790;2023-06-19T13:11:33;101071.78;;;34.91;61.93
51299;BME280;37382;45.192;9.790;2023-06-19T13:14:01;101079.75;;;35.14;60.78
51299;BME280;37382;45.192;9.790;2023-06-19T13:16:30;101086.06;;;35.36;60.92
51299;BME280;37382;45.192;9.790;2023-06-19T13:19:06;101083.09;;;34.91;62.73
51299;BME280;37382;45.192;9.790;2023-06-19T13:21:34;101078.28;;;34.67;61.92
51299;BME280;37382;45.192;9.790;2023-06-19T13:24:03;101073.53;;;34.96;64.31
51299;BME280;37382;45.192;9.790;2023-06-19T13:26:31;101067.38;;;35.06;61.73
51299;BME280;37382;45.192;9.790;2023-06-19T13:28:58;101073.75;;;35.72;59.65
51299;BME280;37382;45.192;9.790;2023-06-19T13:31:26;101075.81;;;34.66;61.51
51299;BME280;37382;45.192;9.790;2023-06-19T13:33:54;101075.66;;;34.99;59.97
51299;BME280;37382;45.192;9.790;2023-06-19T13:36:22;101078.50;;;34.25;60.35
51299;BME280;37382;45.192;9.790;2023-06-19T13:38:51;101063.38;;;35.07;56.83
51299;BME280;37382;45.192;9.790;2023-06-19T13:41:19;101067.91;;;34.59;57.43
51299;BME280;37382;45.192;9.790;2023-06-19T13:43:46;101070.00;;;34.99;58.10
51299;BME280;37382;45.192;9.790;2023-06-19T13:46:14;101068.06;;;35.85;56.04
51299;BME280;37382;45.192;9.790;2023-06-19T13:48:42;101058.75;;;36.16;56.76
51299;BME280;37382;45.192;9.790;2023-06-19T13:51:10;101062.53;;;34.42;59.57
51299;BME280;37382;45.192;9.790;2023-06-19T13:53:38;101055.63;;;33.93;59.71
51299;BME280;37382;45.192;9.790;2023-06-19T13:56:05;101057.91;;;33.79;59.67
51299;BME280;37382;45.192;9.790;2023-06-19T13:58:33;101051.66;;;34.68;57.94
51299;BME280;37382;45.192;9.790;2023-06-19T14:01:01;101044.72;;;34.66;57.46
51299;BME280;37382;45.192;9.790;2023-06-19T14:03:29;101046.88;;;33.86;59.37
51299;BME280;37382;45.192;9.790;2023-06-19T14:05:57;101051.31;;;34.45;59.94
51299;BME280;37382;45.192;9.790;2023-06-19T14:08:25;101048.50;;;35.23;59.49
51299;BME280;37382;45.192;9.790;2023-06-19T14:10:53;101051.00;;;36.45;56.21
51299;BME280;37382;45.192;9.790;2023-06-19T14:13:20;101050.47;;;35.35;56.21
51299;BME280;37382;45.192;9.790;2023-06-19T14:15:48;101048.63;;;36.15;56.08
51299;BME280;37382;45.192;9.790;2023-06-19T14:18:16;101045.38;;;36.64;54.94
51299;BME280;37382;45.192;9.790;2023-06-19T14:20:43;101039.28;;;37.17;54.88
51299;BME280;37382;45.192;9.790;2023-06-19T14:23:10;101034.16;;;37.23;53.93
51299;BME280;37382;45.192;9.790;2023-06-19T14:25:38;101039.78;;;36.84;53.10
51299;BME280;37382;45.192;9.790;2023-06-19T14:28:10;101034.59;;;35.74;54.69
51299;BME280;37382;45.192;9.790;2023-06-19T14:30:38;101029.13;;;36.45;54.12
51299;BME280;37382;45.192;9.790;2023-06-19T14:33:06;101025.97;;;37.21;53.18
51299;BME280;37382;45.192;9.790;2023-06-19T14:35:37;101026.81;;;37.22;52.09
51299;BME280;37382;45.192;9.790;2023-06-19T14:38:05;101036.56;;;35.86;54.89
51299;BME280;37382;45.192;9.790;2023-06-19T14:40:33;101034.13;;;35.72;53.63
51299;BME280;37382;45.192;9.790;2023-06-19T14:43:01;101035.78;;;35.73;53.43
51299;BME280;37382;45.192;9.790;2023-06-19T14:45:28;101030.41;;;35.68;54.06
51299;BME280;37382;45.192;9.790;2023-06-19T14:47:55;101026.06;;;36.19;53.29
51299;BME280;37382;45.192;9.790;2023-06-19T14:50:23;101020.16;;;36.75;53.16
51299;BME280;37382;45.192;9.790;2023-06-19T14:52:51;101022.97;;;36.40;52.99
51299;BME280;37382;45.192;9.790;2023-06-19T14:55:19;101022.53;;;36.57;54.45
51299;BME280;37382;45.192;9.790;2023-06-19T14:57:46;101017.63;;;37.48;52.21
51299;BME280;37382;45.192;9.790;2023-06-19T15:00:14;101015.94;;;37.67;50.49
51299;BME280;37382;45.192;9.790;2023-06-19T15:02:41;101013.66;;;37.53;49.40
51299;BME280;37382;45.192;9.790;2023-06-19T15:05:09;101022.00;;;40.38;47.15
51299;BME280;37382;45.192;9.790;2023-06-19T15:07:37;101030.84;;;44.08;40.32
51299;BME280;37382;45.192;9.790;2023-06-19T15:10:05;101033.97;;;45.35;37.35
51299;BME280;37382;45.192;9.790;2023-06-19T15:12:33;101026.38;;;46.91;35.63
51299;BME280;37382;45.192;9.790;2023-06-19T15:15:01;101028.28;;;47.54;33.60
51299;BME280;37382;45.192;9.790;2023-06-19T15:17:33;101036.78;;;46.64;33.31
51299;BME280;37382;45.192;9.790;2023-06-19T15:20:03;101031.47;;;46.19;32.77
51299;BME280;37382;45.192;9.790;2023-06-19T15:22:32;101034.53;;;47.69;32.79
51299;BME280;37382;45.192;9.790;2023-06-19T15:24:59;101038.25;;;48.94;29.54
51299;BME280;37382;45.192;9.790;2023-06-19T15:27:27;101036.50;;;47.55;30.94
51299;BME280;37382;45.192;9.790;2023-06-19T15:29:55;101032.59;;;50.32;28.16
51299;BME280;37382;45.192;9.790;2023-06-19T15:32:23;101025.78;;;48.68;29.92
51299;BME280;37382;45.192;9.790;2023-06-19T15:34:50;101026.25;;;47.87;30.32
51299;BME280;37382;45.192;9.790;2023-06-19T15:37:18;101022.13;;;48.05;29.78
51299;BME280;37382;45.192;9.790;2023-06-19T15:39:45;101025.91;;;48.02;28.82
51299;BME280;37382;45.192;9.790;2023-06-19T15:42:13;101022.88;;;47.39;30.83
51299;BME280;37382;45.192;9.790;2023-06-19T15:44:40;101024.19;;;46.34;30.52
51299;BME280;37382;45.192;9.790;2023-06-19T15:47:07;101022.91;;;48.38;29.23
51299;BME280;37382;45.192;9.790;2023-06-19T15:49:35;101011.09;;;48.91;28.24
51299;BME280;37382;45.192;9.790;2023-06-19T15:52:04;101012.16;;;48.97;28.00
51299;BME280;37382;45.192;9.790;2023-06-19T15:54:32;101009.59;;;44.05;32.48
51299;BME280;37382;45.192;9.790;2023-06-19T15:56:59;101012.38;;;45.23;32.05
51299;BME280;37382;45.192;9.790;2023-06-19T15:59:28;101011.38;;;49.10;27.92
51299;BME280;37382;45.192;9.790;2023-06-19T16:01:55;101008.81;;;44.43;32.61
51299;BME280;37382;45.192;9.790;2023-06-19T16:04:23;101010.34;;;44.13;33.76
51299;BME280;37382;45.192;9.790;2023-06-19T16:06:51;101012.28;;;46.96;30.42
51299;BME280;37382;45.192;9.790;2023-06-19T16:09:19;101012.03;;;44.87;33.25
51299;BME280;37382;45.192;9.790;2023-06-19T16:11:47;100998.03;;;45.78;31.22
51299;BME280;37382;45.192;9.790;2023-06-19T16:14:16;100995.63;;;42.63;35.79
51299;BME280;37382;45.192;9.790;2023-06-19T16:16:43;100998.38;;;41.15;37.00
51299;BME280;37382;45.192;9.790;2023-06-19T16:19:11;101005.91;;;40.71;38.08
51299;BME280;37382;45.192;9.790;2023-06-19T16:21:39;101022.16;;;40.08;39.97
51299;BME280;37382;45.192;9.790;2023-06-19T16:24:07;101004.47;;;39.13;40.79
51299;BME280;37382;45.192;9.790;2023-06-19T16:26:35;101005.09;;;40.75;38.18
51299;BME280;37382;45.192;9.790;2023-06-19T16:29:03;101013.44;;;38.08;43.19
51299;BME280;37382;45.192;9.790;2023-06-19T16:31:30;101014.91;;;36.77;44.39
51299;BME280;37382;45.192;9.790;2023-06-19T16:33:58;101007.94;;;37.10;44.93
51299;BME280;37382;45.192;9.790;2023-06-19T16:36:25;101012.25;;;36.33;46.18
51299;BME280;37382;45.192;9.790;2023-06-19T16:38:53;101014.84;;;36.06;47.01
51299;BME280;37382;45.192;9.790;2023-06-19T16:41:21;101016.59;;;35.67;46.93
51299;BME280;37382;45.192;9.790;2023-06-19T16:43:48;101012.84;;;35.47;47.36
51299;BME280;37382;45.192;9.790;2023-06-19T16:46:16;101014.88;;;35.62;48.84
51299;BME280;37382;45.192;9.790;2023-06-19T16:48:43;101015.19;;;35.89;50.84
51299;BME280;37382;45.192;9.790;2023-06-19T16:51:12;101017.88;;;34.84;50.86